sensor_id;sensor_type;location;lat;lon;timestamp;pressure;altitude;pressure_sealevel;temperature;humidity
46087;BME280;31824;49.648;8.640;2023-09-12T00:01:32;99879.53;;;19.78;100.00
46087;BME280;31824;49.648;8.640;2023-09-12T00:04:34;99881.59;;;20.01;100.00
46087;BME280;31824;49.648;8.640;2023-09-12T00:07:37;99879.28;;;19.73;100.00
46087;BME280;31824;49.648;8.640;2023-09-12T00:10:40;99884.25;;;19.65;100.00
46087;BME280;31824;49.648;8.640;2023-09-12T00:13:42;99889.09;;;19.74;100.00
46087;BME280;31824;49.648;8.640;2023-09-12T00:16:44;99894.91;;;19.65;100.00
46087;BME280;31824;49.648;8.640;2023-09-12T00:19:45;99912.00;;;19.52;100.00
46087;BME280;31824;49.648;8.640;2023-09-12T00:22:47;99915.47;;;19.68;100.00
46087;BME280;31824;49.648;8.640;2023-09-12T00:25:51;99919.19;;;19.71;100.00
46087;BME280;31824;49.648;8.640;2023-09-12T00:28:55;99915.41;;;19.50;100.00
46087;BME280;31824;49.648;8.640;2023-09-12T00:31:57;99914.69;;;19.36;100.00
46087;BME280;31824;49.648;8.640;2023-09-12T00:34:59;99910.13;;;19.33;100.00
46087;BME280;31824;49.648;8.640;2023-09-12T00:38:00;99905.00;;;19.54;100.00
46087;BME280;31824;49.648;8.640;2023-09-12T00:41:03;99899.53;;;19.35;100.00
46087;BME280;31824;49.648;8.640;2023-09-12T00:44:06;99894.09;;;19.15;100.00
46087;BME280;31824;49.648;8.640;2023-09-12T00:47:08;99891.06;;;19.42;100.00
46087;BME280;31824;49.648;8.640;2023-09-12T00:50:11;99887.22;;;19.37;100.00
46087;BME280;31824;49.648;8.640;2023-09-12T00:53:14;99874.16;;;18.91;100.00
46087;BME280;31824;49.648;8.640;2023-09-12T00:56:18;99878.78;;;18.78;100.00
46087;BME280;31824;49.648;8.640;2023-09-12T00:59:19;99875.13;;;18.93;100.00
46087;BME280;31824;49.648;8.640;2023-09-12T01:02:22;99874.94;;;19.22;100.00
46087;BME280;31824;49.648;8.640;2023-09-12T01:05:24;99876.44;;;19.01;100.00
46087;BME280;31824;49.648;8.640;2023-09-12T01:08:25;99871.88;;;18.98;100.00
46087;BME280;31824;49.648;8.640;2023-09-12T01:11:29;99864.81;;;18.99;100.00
46087;BME280;31824;49.648;8.640;2023-09-12T01:14:31;99860.84;;;18.91;100.00
46087;BME280;31824;49.648;8.640;2023-09-12T01:17:33;99860.16;;;18.78;100.00
46087;BME280;31824;49.648;8.640;2023-09-12T01:20:36;99868.78;;;18.74;100.00
46087;BME280;31824;49.648;8.640;2023-09-12T01:23:49;99861.13;;;18.64;100.00
46087;BME280;31824;49.648;8.640;2023-09-12T01:27:07;99864.38;;;18.75;100.00
46087;BME280;31824;49.648;8.640;2023-09-12T01:30:10;99863.88;;;18.65;100.00
46087;BME280;31824;49.648;8.640;2023-09-12T01:33:12;99857.06;;;18.70;100.00
46087;BME280;31824;49.648;8.640;2023-09-12T01:36:14;99853.88;;;18.78;100.00
46087;BME280;31824;49.648;8.640;2023-09-12T01:39:16;99845.84;;;18.60;100.00
46087;BME280;31824;49.648;8.640;2023-09-12T01:42:21;99841.69;;;18.65;100.00
46087;BME280;31824;49.648;8.640;2023-09-12T01:45:24;99838.00;;;18.79;100.00
46087;BME280;31824;49.648;8.640;2023-09-12T01:48:30;99837.69;;;18.56;100.00
46087;BME280;31824;49.648;8.640;2023-09-12T01:51:35;99829.63;;;18.55;100.00
46087;BME280;31824;49.648;8.640;2023-09-12T01:54:38;99828.22;;;18.78;100.00
46087;BME280;31824;49.648;8.640;2023-09-12T01:57:41;99833.94;;;18.69;100.00
46087;BME280;31824;49.648;8.640;2023-09-12T02:00:43;99836.44;;;18.50;100.00
46087;BME280;31824;49.648;8.640;2023-09-12T02:03:45;99828.84;;;18.58;100.00
46087;BME280;31824;49.648;8.640;2023-09-12T02:06:48;99839.50;;;18.41;100.00
46087;BME280;31824;49.648;8.640;2023-09-12T02:09:50;99820.06;;;18.59;100.00
46087;BME280;31824;49.648;8.640;2023-09-12T02:12:53;99819.00;;;18.55;100.00
46087;BME280;31824;49.648;8.640;2023-09-12T02:15:58;99807.69;;;18.59;100.00
46087;BME280;31824;49.648;8.640;2023-09-12T02:19:01;99810.31;;;18.43;100.00
46087;BME280;31824;49.648;8.640;2023-09-12T02:22:03;99811.31;;;18.45;100.00
46087;BME280;31824;49.648;8.640;2023-09-12T02:25:06;99805.19;;;18.46;100.00
46087;BME280;31824;49.648;8.640;2023-09-12T02:28:09;99807.25;;;18.51;100.00
46087;BME280;31824;49.648;8.640;2023-09-12T02:31:11;99801.59;;;18.62;100.00
46087;BME280;31824;49.648;8.640;2023-09-12T02:34:13;99796.63;;;18.51;100.00
46087;BME280;31824;49.648;8.640;2023-09-12T02:37:15;99788.81;;;18.38;100.00
46087;BME280;31824;49.648;8.640;2023-09-12T02:40:17;99795.22;;;18.42;100.00
46087;BME280;31824;49.648;8.640;2023-09-12T02:43:21;99801.44;;;18.59;100.00
46087;BME280;31824;49.648;8.640;2023-09-12T02:46:22;99802.72;;;18.83;100.00
46087;BME280;31824;49.648;8.640;2023-09-12T02:49:24;99804.09;;;18.92;100.00
46087;BME280;31824;49.648;8.640;2023-09-12T02:52:26;99803.59;;;18.99;100.00
46087;BME280;31824;49.648;8.640;2023-09-12T02:55:28;99810.66;;;18.98;100.00
46087;BME280;31824;49.648;8.640;2023-09-12T02:58:31;99816.38;;;19.06;100.00
46087;BME280;31824;49.648;8.640;2023-09-12T03:01:33;99821.22;;;18.97;100.00
46087;BME280;31824;49.648;8.640;2023-09-12T03:04:35;99828.81;;;18.89;100.00
46087;BME280;31824;49.648;8.640;2023-09-12T03:07:37;99836.81;;;18.89;100.00
46087;BME280;31824;49.648;8.640;2023-09-12T03:10:39;99834.88;;;18.70;100.00
46087;BME280;31824;49.648;8.640;2023-09-12T03:13:42;99831.19;;;18.68;100.00
46087;BME280;31824;49.648;8.640;2023-09-12T03:16:44;99813.09;;;18.61;100.00
46087;BME280;31824;49.648;8.640;2023-09-12T03:19:46;99798.44;;;18.85;100.00
46087;BME280;31824;49.648;8.640;2023-09-12T03:22:48;99799.09;;;18.98;100.00
46087;BME280;31824;49.648;8.640;2023-09-12T03:25:50;99804.88;;;19.23;100.00
46087;BME280;31824;49.648;8.640;2023-09-12T03:28:53;99811.66;;;18.84;100.00
46087;BME280;31824;49.648;8.640;2023-09-12T03:31:56;99803.56;;;19.15;100.00
46087;BME280;31824;49.648;8.640;2023-09-12T03:34:58;99809.56;;;19.11;100.00
46087;BME280;31824;49.648;8.640;2023-09-12T03:38:00;99801.13;;;19.20;100.00
46087;BME280;31824;49.648;8.640;2023-09-12T03:41:02;99788.88;;;19.23;100.00
46087;BME280;31824;49.648;8.640;2023-09-12T03:44:06;99782.03;;;18.94;100.00
46087;BME280;31824;49.648;8.640;2023-09-12T03:47:08;99783.75;;;19.10;100.00
46087;BME280;31824;49.648;8.640;2023-09-12T03:50:11;99792.81;;;19.14;100.00
46087;BME280;31824;49.648;8.640;2023-09-12T03:53:13;99816.31;;;19.04;100.00
46087;BME280;31824;49.648;8.640;2023-09-12T03:56:15;99808.72;;;18.79;100.00
46087;BME280;31824;49.648;8.640;2023-09-12T03:59:19;99817.88;;;18.84;100.00
46087;BME280;31824;49.648;8.640;2023-09-12T04:02:21;99821.28;;;18.82;100.00
46087;BME280;31824;49.648;8.640;2023-09-12T04:05:22;99830.88;;;18.78;100.00
46087;BME280;31824;49.648;8.640;2023-09-12T04:08:24;99828.97;;;18.92;100.00
46087;BME280;31824;49.648;8.640;2023-09-12T04:11:26;99825.13;;;18.70;100.00
46087;BME280;31824;49.648;8.640;2023-09-12T04:14:49;99823.56;;;18.74;100.00
46087;BME280;31824;49.648;8.640;2023-09-12T04:17:51;99823.72;;;18.77;100.00
46087;BME280;31824;49.648;8.640;2023-09-12T04:20:53;99825.06;;;18.69;100.00
46087;BME280;31824;49.648;8.640;2023-09-12T04:23:57;99816.31;;;18.71;100.00
46087;BME280;31824;49.648;8.640;2023-09-12T04:26:59;99824.38;;;18.56;100.00
46087;BME280;31824;49.648;8.640;2023-09-12T04:30:03;99837.50;;;18.53;100.00
46087;BME280;31824;49.648;8.640;2023-09-12T04:33:06;99835.28;;;18.61;100.00
46087;BME280;31824;49.648;8.640;2023-09-12T04:36:07;99840.78;;;18.97;100.00
46087;BME280;31824;49.648;8.640;2023-09-12T04:39:09;99834.59;;;18.82;100.00
46087;BME280;31824;49.648;8.640;2023-09-12T04:42:11;99826.88;;;18.86;100.00
46087;BME280;31824;49.648;8.640;2023-09-12T04:45:15;99834.75;;;18.68;100.00
46087;BME280;31824;49.648;8.640;2023-09-12T04:48:17;99843.09;;;18.75;100.00
46087;BME280;31824;49.648;8.640;2023-09-12T04:51:19;99843.34;;;18.96;100.00
46087;BME280;31824;49.648;8.640;2023-09-12T04:54:21;99850.41;;;18.95;100.00
46087;BME280;31824;49.648;8.640;2023-09-12T04:57:22;99859.78;;;19.21;100.00
46087;BME280;31824;49.648;8.640;2023-09-12T05:00:26;99845.06;;;19.12;100.00
46087;BME280;31824;49.648;8.640;2023-09-12T05:03:28;99840.09;;;19.18;100.00
46087;BME280;31824;49.648;8.640;2023-09-12T05:06:30;99822.97;;;18.80;100.00
46087;BME280;31824;49.648;8.640;2023-09-12T05:09:32;99825.28;;;18.73;100.00
46087;BME280;31824;49.648;8.640;2023-09-12T05:12:34;99834.16;;;18.89;100.00
46087;BME280;31824;49.648;8.640;2023-09-12T05:15:37;99825.59;;;19.13;100.00
46087;BME280;31824;49.648;8.640;2023-09-12T05:18:41;99810.91;;;18.86;100.00
46087;BME280;31824;49.648;8.640;2023-09-12T05:21:43;99819.38;;;18.96;100.00
46087;BME280;31824;49.648;8.640;2023-09-12T05:24:45;99857.47;;;19.11;100.00
46087;BME280;31824;49.648;8.640;2023-09-12T05:27:47;99882.44;;;19.13;100.00
46087;BME280;31824;49.648;8.640;2023-09-12T05:30:50;99869.59;;;19.22;100.00
46087;BME280;31824;49.648;8.640;2023-09-12T05:33:52;99842.47;;;19.13;100.00
46087;BME280;31824;49.648;8.640;2023-09-12T05:36:54;99821.81;;;18.75;100.00
46087;BME280;31824;49.648;8.640;2023-09-12T05:39:56;99820.53;;;19.01;100.00
46087;BME280;31824;49.648;8.640;2023-09-12T05:42:58;99822.41;;;19.20;100.00
46087;BME280;31824;49.648;8.640;2023-09-12T05:46:01;99852.19;;;19.64;100.00
46087;BME280;31824;49.648;8.640;2023-09-12T05:49:03;99850.03;;;19.56;100.00
46087;BME280;31824;49.648;8.640;2023-09-12T05:52:06;99853.97;;;19.29;100.00
46087;BME280;31824;49.648;8.640;2023-09-12T05:55:08;99855.50;;;19.42;100.00
46087;BME280;31824;49.648;8.640;2023-09-12T05:58:10;99868.31;;;19.32;100.00
46087;BME280;31824;49.648;8.640;2023-09-12T06:01:13;99868.59;;;19.37;100.00
46087;BME280;31824;49.648;8.640;2023-09-12T06:04:16;99872.16;;;19.55;100.00
46087;BME280;31824;49.648;8.640;2023-09-12T06:07:18;99876.53;;;19.71;100.00
46087;BME280;31824;49.648;8.640;2023-09-12T06:10:21;99872.50;;;19.80;100.00
46087;BME280;31824;49.648;8.640;2023-09-12T06:13:23;99867.56;;;19.69;100.00
46087;BME280;31824;49.648;8.640;2023-09-12T06:16:27;99858.28;;;19.61;100.00
46087;BME280;31824;49.648;8.640;2023-09-12T06:19:29;99866.50;;;19.66;100.00
46087;BME280;31824;49.648;8.640;2023-09-12T06:22:33;99863.28;;;19.73;100.00
46087;BME280;31824;49.648;8.640;2023-09-12T06:25:35;99863.28;;;19.73;100.00
46087;BME280;31824;49.648;8.640;2023-09-12T06:28:37;99867.56;;;19.35;100.00
46087;BME280;31824;49.648;8.640;2023-09-12T06:31:40;99866.34;;;19.28;100.00
46087;BME280;31824;49.648;8.640;2023-09-12T06:34:45;99876.94;;;19.45;100.00
46087;BME280;31824;49.648;8.640;2023-09-12T06:37:47;99888.59;;;19.29;100.00
46087;BME280;31824;49.648;8.640;2023-09-12T06:40:49;99882.31;;;19.28;100.00
46087;BME280;31824;49.648;8.640;2023-09-12T06:43:51;99866.03;;;19.22;100.00
46087;BME280;31824;49.648;8.640;2023-09-12T06:46:54;99874.53;;;19.15;100.00
46087;BME280;31824;49.648;8.640;2023-09-12T06:49:56;99874.03;;;19.22;100.00
46087;BME280;31824;49.648;8.640;2023-09-12T06:52:58;99872.06;;;19.36;100.00
46087;BME280;31824;49.648;8.640;2023-09-12T06:56:00;99878.06;;;19.32;100.00
46087;BME280;31824;49.648;8.640;2023-09-12T06:59:01;99882.19;;;19.43;100.00
46087;BME280;31824;49.648;8.640;2023-09-12T07:02:05;99873.56;;;19.31;100.00
46087;BME280;31824;49.648;8.640;2023-09-12T07:05:07;99883.19;;;19.27;100.00
46087;BME280;31824;49.648;8.640;2023-09-12T07:08:09;99890.06;;;19.58;100.00
46087;BME280;31824;49.648;8.640;2023-09-12T07:11:11;99887.47;;;19.60;100.00
46087;BME280;31824;49.648;8.640;2023-09-12T07:14:13;99887.25;;;20.07;100.00
46087;BME280;31824;49.648;8.640;2023-09-12T07:17:16;99876.38;;;20.40;100.00
46087;BME280;31824;49.648;8.640;2023-09-12T07:20:19;99879.78;;;20.56;100.00
46087;BME280;31824;49.648;8.640;2023-09-12T07:23:21;99885.13;;;20.74;100.00
46087;BME280;31824;49.648;8.640;2023-09-12T07:26:24;99892.94;;;20.89;100.00
46087;BME280;31824;49.648;8.640;2023-09-12T07:29:28;99899.84;;;21.05;100.00
46087;BME280;31824;49.648;8.640;2023-09-12T07:32:32;99900.16;;;21.11;100.00
46087;BME280;31824;49.648;8.640;2023-09-12T07:35:33;99904.50;;;21.09;100.00
46087;BME280;31824;49.648;8.640;2023-09-12T07:38:35;99901.91;;;21.11;100.00
46087;BME280;31824;49.648;8.640;2023-09-12T07:41:39;99901.97;;;21.12;100.00
46087;BME280;31824;49.648;8.640;2023-09-12T07:44:40;99904.97;;;21.20;100.00
46087;BME280;31824;49.648;8.640;2023-09-12T07:47:44;99905.53;;;21.32;100.00
46087;BME280;31824;49.648;8.640;2023-09-12T07:50:45;99902.00;;;21.33;100.00
46087;BME280;31824;49.648;8.640;2023-09-12T07:53:47;99896.53;;;21.30;100.00
46087;BME280;31824;49.648;8.640;2023-09-12T07:56:49;99893.16;;;21.34;100.00
46087;BME280;31824;49.648;8.640;2023-09-12T07:59:51;99899.31;;;21.12;100.00
46087;BME280;31824;49.648;8.640;2023-09-12T08:02:54;99896.13;;;21.21;100.00
46087;BME280;31824;49.648;8.640;2023-09-12T08:05:56;99896.50;;;21.69;100.00
46087;BME280;31824;49.648;8.640;2023-09-12T08:08:58;99907.94;;;21.88;100.00
46087;BME280;31824;49.648;8.640;2023-09-12T08:12:00;99907.16;;;21.90;100.00
46087;BME280;31824;49.648;8.640;2023-09-12T08:15:02;99904.66;;;22.16;100.00
46087;BME280;31824;49.648;8.640;2023-09-12T08:18:06;99907.00;;;22.30;100.00
46087;BME280;31824;49.648;8.640;2023-09-12T08:21:09;99895.34;;;22.28;100.00
46087;BME280;31824;49.648;8.640;2023-09-12T08:24:11;99905.16;;;22.50;100.00
46087;BME280;31824;49.648;8.640;2023-09-12T08:27:13;99908.94;;;22.34;100.00
46087;BME280;31824;49.648;8.640;2023-09-12T08:30:16;99900.97;;;22.56;100.00
46087;BME280;31824;49.648;8.640;2023-09-12T08:33:19;99901.19;;;22.85;100.00
46087;BME280;31824;49.648;8.640;2023-09-12T08:36:24;99898.66;;;22.66;100.00
46087;BME280;31824;49.648;8.640;2023-09-12T08:39:40;99899.31;;;23.07;100.00
46087;BME280;31824;49.648;8.640;2023-09-12T08:42:44;99909.47;;;23.16;100.00
46087;BME280;31824;49.648;8.640;2023-09-12T08:45:46;99902.63;;;23.24;100.00
46087;BME280;31824;49.648;8.640;2023-09-12T08:48:55;99903.53;;;23.49;100.00
46087;BME280;31824;49.648;8.640;2023-09-12T08:51:56;99900.03;;;23.51;100.00
46087;BME280;31824;49.648;8.640;2023-09-12T08:54:58;99901.75;;;23.75;100.00
46087;BME280;31824;49.648;8.640;2023-09-12T08:58:02;99903.69;;;23.53;100.00
46087;BME280;31824;49.648;8.640;2023-09-12T09:01:06;99902.22;;;23.13;100.00
46087;BME280;31824;49.648;8.640;2023-09-12T09:04:09;99904.06;;;23.64;100.00
46087;BME280;31824;49.648;8.640;2023-09-12T09:07:12;99910.63;;;23.98;100.00
46087;BME280;31824;49.648;8.640;2023-09-12T09:10:16;99906.41;;;24.34;100.00
46087;BME280;31824;49.648;8.640;2023-09-12T09:13:21;99912.16;;;24.17;100.00
46087;BME280;31824;49.648;8.640;2023-09-12T09:16:23;99903.53;;;24.27;100.00
46087;BME280;31824;49.648;8.640;2023-09-12T09:19:40;99895.66;;;24.34;100.00
46087;BME280;31824;49.648;8.640;2023-09-12T09:22:56;99901.06;;;24.63;100.00
46087;BME280;31824;49.648;8.640;2023-09-12T09:25:57;99896.44;;;24.58;100.00
46087;BME280;31824;49.648;8.640;2023-09-12T09:29:03;99904.56;;;24.89;100.00
46087;BME280;31824;49.648;8.640;2023-09-12T09:32:17;99909.66;;;25.10;100.00
46087;BME280;31824;49.648;8.640;2023-09-12T09:35:20;99913.03;;;25.03;100.00
46087;BME280;31824;49.648;8.640;2023-09-12T09:38:22;99904.59;;;25.21;100.00
46087;BME280;31824;49.648;8.640;2023-09-12T09:41:25;99904.63;;;25.22;100.00
46087;BME280;31824;49.648;8.640;2023-09-12T09:44:27;99897.13;;;25.10;100.00
46087;BME280;31824;49.648;8.640;2023-09-12T09:47:29;99904.19;;;25.37;100.00
46087;BME280;31824;49.648;8.640;2023-09-12T09:50:35;99894.69;;;25.50;100.00
46087;BME280;31824;49.648;8.640;2023-09-12T09:53:39;99899.34;;;25.91;100.00
46087;BME280;31824;49.648;8.640;2023-09-12T09:56:45;99896.97;;;25.70;100.00
46087;BME280;31824;49.648;8.640;2023-09-12T09:59:49;99909.75;;;26.12;100.00
46087;BME280;31824;49.648;8.640;2023-09-12T10:02:53;99903.50;;;26.13;100.00
46087;BME280;31824;49.648;8.640;2023-09-12T10:05:57;99891.97;;;26.19;100.00
46087;BME280;31824;49.648;8.640;2023-09-12T10:09:04;99893.31;;;26.38;100.00
46087;BME280;31824;49.648;8.640;2023-09-12T10:12:08;99890.19;;;26.57;100.00
46087;BME280;31824;49.648;8.640;2023-09-12T10:15:11;99879.59;;;26.67;100.00
46087;BME280;31824;49.648;8.640;2023-09-12T10:18:18;99887.09;;;26.80;100.00
46087;BME280;31824;49.648;8.640;2023-09-12T10:21:34;99880.03;;;26.85;100.00
46087;BME280;31824;49.648;8.640;2023-09-12T10:24:36;99876.22;;;26.74;100.00
46087;BME280;31824;49.648;8.640;2023-09-12T10:27:39;99873.28;;;26.65;100.00
46087;BME280;31824;49.648;8.640;2023-09-12T10:30:42;99874.69;;;26.88;100.00
46087;BME280;31824;49.648;8.640;2023-09-12T10:33:46;99887.50;;;26.99;100.00
46087;BME280;31824;49.648;8.640;2023-09-12T10:36:50;99881.31;;;27.03;100.00
46087;BME280;31824;49.648;8.640;2023-09-12T10:39:53;99887.09;;;27.21;100.00
46087;BME280;31824;49.648;8.640;2023-09-12T10:42:56;99881.94;;;27.34;100.00
46087;BME280;31824;49.648;8.640;2023-09-12T10:46:00;99888.22;;;27.34;100.00
46087;BME280;31824;49.648;8.640;2023-09-12T10:49:06;99881.72;;;27.23;100.00
46087;BME280;31824;49.648;8.640;2023-09-12T10:52:10;99887.44;;;27.38;100.00
46087;BME280;31824;49.648;8.640;2023-09-12T10:55:15;99881.59;;;27.18;100.00
46087;BME280;31824;49.648;8.640;2023-09-12T10:58:19;99874.41;;;27.65;100.00
46087;BME280;31824;49.648;8.640;2023-09-12T11:01:22;99881.63;;;27.66;100.00
46087;BME280;31824;49.648;8.640;2023-09-12T11:04:32;99877.03;;;27.60;100.00
46087;BME280;31824;49.648;8.640;2023-09-12T11:07:45;99872.72;;;27.71;100.00
46087;BME280;31824;49.648;8.640;2023-09-12T11:11:17;99878.50;;;27.93;100.00
46087;BME280;31824;49.648;8.640;2023-09-12T11:14:22;99867.88;;;28.01;100.00
46087;BME280;31824;49.648;8.640;2023-09-12T11:17:25;99873.91;;;27.87;100.00
46087;BME280;31824;49.648;8.640;2023-09-12T11:20:51;99871.00;;;28.30;100.00
46087;BME280;31824;49.648;8.640;2023-09-12T11:23:56;99874.88;;;28.47;100.00
46087;BME280;31824;49.648;8.640;2023-09-12T11:27:00;99871.00;;;28.28;100.00
46087;BME280;31824;49.648;8.640;2023-09-12T11:30:06;99862.50;;;28.02;100.00
46087;BME280;31824;49.648;8.640;2023-09-12T11:33:10;99861.81;;;28.17;100.00
46087;BME280;31824;49.648;8.640;2023-09-12T11:36:13;99856.75;;;28.39;100.00
46087;BME280;31824;49.648;8.640;2023-09-12T11:39:24;99851.19;;;28.28;100.00
46087;BME280;31824;49.648;8.640;2023-09-12T11:42:26;99842.28;;;28.37;100.00
46087;BME280;31824;49.648;8.640;2023-09-12T11:45:29;99845.66;;;28.83;100.00
46087;BME280;31824;49.648;8.640;2023-09-12T11:48:32;99854.81;;;28.94;100.00
46087;BME280;31824;49.648;8.640;2023-09-12T11:51:34;99855.53;;;28.78;100.00
46087;BME280;31824;49.648;8.640;2023-09-12T11:54:37;99852.13;;;28.94;100.00
46087;BME280;31824;49.648;8.640;2023-09-12T11:57:39;99851.91;;;28.79;100.00
46087;BME280;31824;49.648;8.640;2023-09-12T12:00:43;99849.47;;;28.99;100.00
46087;BME280;31824;49.648;8.640;2023-09-12T12:03:45;99854.50;;;29.45;100.00
46087;BME280;31824;49.648;8.640;2023-09-12T12:06:49;99851.69;;;29.36;100.00
46087;BME280;31824;49.648;8.640;2023-09-12T12:09:53;99854.41;;;29.34;100.00
46087;BME280;31824;49.648;8.640;2023-09-12T12:12:54;99852.66;;;29.42;100.00
46087;BME280;31824;49.648;8.640;2023-09-12T12:15:56;99844.44;;;29.30;100.00
46087;BME280;31824;49.648;8.640;2023-09-12T12:18:59;99844.41;;;29.28;100.00
46087;BME280;31824;49.648;8.640;2023-09-12T12:22:01;99842.94;;;29.61;100.00
46087;BME280;31824;49.648;8.640;2023-09-12T12:25:08;99841.81;;;29.39;100.00
46087;BME280;31824;49.648;8.640;2023-09-12T12:28:11;99835.38;;;29.26;100.00
46087;BME280;31824;49.648;8.640;2023-09-12T12:31:12;99831.31;;;29.73;100.00
46087;BME280;31824;49.648;8.640;2023-09-12T12:34:14;99826.81;;;29.75;100.00
46087;BME280;31824;49.648;8.640;2023-09-12T12:37:36;99824.31;;;29.97;100.00
46087;BME280;31824;49.648;8.640;2023-09-12T12:40:40;99833.38;;;30.02;100.00
46087;BME280;31824;49.648;8.640;2023-09-12T12:43:50;99822.63;;;30.14;100.00
46087;BME280;31824;49.648;8.640;2023-09-12T12:46:55;99816.94;;;29.84;100.00
46087;BME280;31824;49.648;8.640;2023-09-12T12:49:57;99812.81;;;30.34;100.00
46087;BME280;31824;49.648;8.640;2023-09-12T12:52:59;99823.00;;;30.76;100.00
46087;BME280;31824;49.648;8.640;2023-09-12T12:56:02;99819.44;;;30.94;100.00
46087;BME280;31824;49.648;8.640;2023-09-12T12:59:05;99825.81;;;31.06;100.00
46087;BME280;31824;49.648;8.640;2023-09-12T13:02:08;99815.81;;;30.94;100.00
46087;BME280;31824;49.648;8.640;2023-09-12T13:05:20;99813.06;;;30.81;100.00
46087;BME280;31824;49.648;8.640;2023-09-12T13:08:22;99805.06;;;31.19;100.00
46087;BME280;31824;49.648;8.640;2023-09-12T13:11:25;99798.63;;;30.95;100.00
46087;BME280;31824;49.648;8.640;2023-09-12T13:14:28;99786.97;;;31.21;100.00
46087;BME280;31824;49.648;8.640;2023-09-12T13:17:33;99796.94;;;31.39;100.00
46087;BME280;31824;49.648;8.640;2023-09-12T13:20:35;99785.22;;;31.55;100.00
46087;BME280;31824;49.648;8.640;2023-09-12T13:23:38;99786.06;;;31.11;100.00
46087;BME280;31824;49.648;8.640;2023-09-12T13:26:41;99778.84;;;31.35;100.00
46087;BME280;31824;49.648;8.640;2023-09-12T13:29:43;99788.84;;;31.68;100.00
46087;BME280;31824;49.648;8.640;2023-09-12T13:32:45;99788.75;;;31.15;100.00
46087;BME280;31824;49.648;8.640;2023-09-12T13:35:48;99776.91;;;30.84;100.00
46087;BME280;31824;49.648;8.640;2023-09-12T13:38:50;99784.25;;;31.16;100.00
46087;BME280;31824;49.648;8.640;2023-09-12T13:41:54;99771.63;;;31.46;100.00
46087;BME280;31824;49.648;8.640;2023-09-12T13:44:59;99777.03;;;31.30;100.00
46087;BME280;31824;49.648;8.640;2023-09-12T13:48:01;99768.94;;;31.68;100.00
46087;BME280;31824;49.648;8.640;2023-09-12T13:51:03;99767.94;;;31.13;100.00
46087;BME280;31824;49.648;8.640;2023-09-12T13:54:05;99760.69;;;31.00;100.00
46087;BME280;31824;49.648;8.640;2023-09-12T13:57:10;99760.75;;;31.37;100.00
46087;BME280;31824;49.648;8.640;2023-09-12T14:00:13;99747.22;;;31.61;100.00
46087;BME280;31824;49.648;8.640;2023-09-12T14:03:15;99753.53;;;31.57;100.00
46087;BME280;31824;49.648;8.640;2023-09-12T14:06:17;99749.00;;;31.95;100.00
46087;BME280;31824;49.648;8.640;2023-09-12T14:09:19;99741.75;;;31.49;100.00
46087;BME280;31824;49.648;8.640;2023-09-12T14:12:28;99741.78;;;31.71;100.00
46087;BME280;31824;49.648;8.640;2023-09-12T14:15:30;99740.84;;;31.87;100.00
46087;BME280;31824;49.648;8.640;2023-09-12T14:18:33;99745.41;;;31.51;100.00
46087;BME280;31824;49.648;8.640;2023-09-12T14:21:35;99751.75;;;31.70;100.00
46087;BME280;31824;49.648;8.640;2023-09-12T14:24:39;99748.13;;;31.67;100.00
46087;BME280;31824;49.648;8.640;2023-09-12T14:27:43;99744.41;;;31.00;100.00
46087;BME280;31824;49.648;8.640;2023-09-12T14:30:46;99739.03;;;31.41;100.00
46087;BME280;31824;49.648;8.640;2023-09-12T14:33:50;99739.03;;;31.85;100.00
46087;BME280;31824;49.648;8.640;2023-09-12T14:36:54;99738.09;;;32.03;100.00
46087;BME280;31824;49.648;8.640;2023-09-12T14:39:56;99738.16;;;31.65;100.00
46087;BME280;31824;49.648;8.640;2023-09-12T14:42:59;99731.81;;;31.71;100.00
46087;BME280;31824;49.648;8.640;2023-09-12T14:46:02;99734.50;;;31.37;100.00
46087;BME280;31824;49.648;8.640;2023-09-12T14:49:05;99726.38;;;31.70;100.00
46087;BME280;31824;49.648;8.640;2023-09-12T14:52:07;99720.03;;;31.40;100.00
46087;BME280;31824;49.648;8.640;2023-09-12T14:55:22;99716.41;;;31.83;100.00
46087;BME280;31824;49.648;8.640;2023-09-12T14:58:25;99706.38;;;32.09;100.00
46087;BME280;31824;49.648;8.640;2023-09-12T15:01:27;99702.78;;;31.99;100.00
46087;BME280;31824;49.648;8.640;2023-09-12T15:04:29;99699.19;;;31.82;100.00
46087;BME280;31824;49.648;8.640;2023-09-12T15:07:31;99691.09;;;31.14;100.00
46087;BME280;31824;49.648;8.640;2023-09-12T15:10:33;99698.28;;;31.00;100.00
46087;BME280;31824;49.648;8.640;2023-09-12T15:13:37;99702.53;;;30.19;100.00
46087;BME280;31824;49.648;8.640;2023-09-12T15:16:43;99698.66;;;29.76;100.00
46087;BME280;31824;49.648;8.640;2023-09-12T15:19:45;99696.84;;;29.72;100.00
46087;BME280;31824;49.648;8.640;2023-09-12T15:22:47;99703.63;;;29.19;100.00
46087;BME280;31824;49.648;8.640;2023-09-12T15:25:49;99691.59;;;28.86;100.00
46087;BME280;31824;49.648;8.640;2023-09-12T15:28:52;99696.59;;;28.51;100.00
46087;BME280;31824;49.648;8.640;2023-09-12T15:31:54;99684.72;;;28.38;100.00
46087;BME280;31824;49.648;8.640;2023-09-12T15:34:56;99685.59;;;28.35;100.00
46087;BME280;31824;49.648;8.640;2023-09-12T15:37:59;99690.97;;;28.32;100.00
46087;BME280;31824;49.648;8.640;2023-09-12T15:41:01;99685.38;;;28.17;100.00
46087;BME280;31824;49.648;8.640;2023-09-12T15:44:06;99680.69;;;28.02;100.00
46087;BME280;31824;49.648;8.640;2023-09-12T15:47:16;99672.47;;;27.97;100.00
46087;BME280;31824;49.648;8.640;2023-09-12T15:50:21;99680.38;;;27.83;100.00
46087;BME280;31824;49.648;8.640;2023-09-12T15:53:23;99676.66;;;27.72;100.00
46087;BME280;31824;49.648;8.640;2023-09-12T15:56:25;99668.59;;;27.75;100.00
46087;BME280;31824;49.648;8.640;2023-09-12T15:59:28;99669.66;;;27.88;100.00